Latest Weather Observations for Cape Borda

IDS60801

Issued at 10:31 pm CST Sunday 5 July 2015 (issued every 30 minutes, with the page automatically refreshed every 10 minutes)

About weather observations | Map of weather stations | Latest weather observations for SA | Other Formats
Station Details ID: 022823 Name: CAPE BORDA Lat: -35.75 Lon: 136.60 Height: 158.0 m
Data from the previous 72 hours. | See also: Recent months at Cape Borda
Date/Time
CST
Temp
°C
App
Temp
°C
Dew
Point
Rel
Hum
%
Delta-T
°C
Wind Press
QNH
hPa
Press
MSL
hPa
Rain
since 9 am
mm
Dir
 
Spd
km/h
Gust
km/h
Spd
kts
Gust
kts
05/10:30pm 12.1 7.2 11.2 94 0.5 WNW 28 35 15 19 1014.2 - 6.8
05/10:28pm 12.0 7.1 11.2 95 0.4 NW 28 52 15 28 1014.3 - 6.6
05/10:00pm 12.4 8.2 11.1 92 0.7 NNW 24 39 13 21 1013.9 - 4.6
05/09:30pm 12.6 9.3 11.7 94 0.5 NNW 20 30 11 16 1014.2 - 4.4
05/09:00pm 12.4 9.6 11.5 94 0.5 N 17 20 9 11 1014.5 1014.6 4.2
05/08:30pm 12.4 9.5 11.1 92 0.7 NNW 17 24 9 13 1014.8 - 4.2
05/08:00pm 12.2 8.7 10.9 92 0.7 NNW 20 24 11 13 1015.1 - 3.4
05/07:30pm 12.1 8.8 11.0 93 0.6 NW 19 28 10 15 1015.0 - 3.2
05/07:00pm 12.4 7.6 11.5 94 0.5 WNW 28 39 15 21 1014.9 - 1.4
05/06:30pm 13.1 7.8 9.8 80 1.7 WNW 28 39 15 21 1014.8 - 0.6
05/06:00pm 14.0 9.8 12.4 90 0.9 NW 26 35 14 19 1014.8 1014.9 0.6
05/05:30pm 13.9 9.6 12.1 89 1.0 NW 26 37 14 20 1014.7 - 0.6
05/05:00pm 13.7 9.3 11.8 88 1.0 NNW 26 35 14 19 1014.7 - 0.6
05/04:30pm 13.7 8.9 11.8 88 1.0 NW 28 39 15 21 1014.8 - 0.4
05/04:00pm 13.4 9.4 11.7 89 0.9 NW 24 33 13 18 1014.8 - 0.4
05/03:30pm 14.0 8.5 10.4 79 1.9 NW 30 39 16 21 1014.9 - 0.2
05/03:00pm 15.4 10.6 10.3 71 2.7 NW 26 41 14 22 1014.9 1015.0 0.2
05/02:30pm 15.3 9.9 9.5 68 3.0 NW 28 39 15 21 1015.1 - 0.2
05/02:00pm 14.4 9.6 8.7 68 2.9 NNW 24 37 13 20 1015.3 - 0.2
05/01:30pm 14.8 9.1 8.3 65 3.3 NNW 28 37 15 20 1015.6 - 0.2
05/01:00pm 15.1 9.4 8.4 64 3.4 NNW 28 41 15 22 1015.9 - 0.2
05/12:30pm 14.3 8.8 9.0 70 2.7 NNW 28 37 15 20 1016.3 - 0.2
05/12:00pm 13.7 9.0 9.4 75 2.2 NNW 24 33 13 18 1016.7 1016.9 0.2
05/11:30am 13.4 8.0 9.5 77 2.0 NNW 28 37 15 20 1017.0 - 0.2
05/11:00am 13.6 8.5 9.3 75 2.2 NNW 26 35 14 19 1017.5 - 0.0
05/10:30am 14.2 9.2 9.6 74 2.4 NNW 26 39 14 21 1017.7 - 0.0
05/10:00am 13.9 8.7 8.8 71 2.6 NNW 26 35 14 19 1017.9 - 0.0
05/09:30am 14.0 8.7 8.5 69 2.8 NNW 26 35 14 19 1017.8 - 0.0
05/09:00am 13.9 9.0 8.3 69 2.8 NNW 24 41 13 22 1017.7 1017.9 0.0
05/08:30am 13.6 8.5 7.8 68 2.9 NNW 24 37 13 20 1017.7 - 0.0
05/08:00am 13.5 8.5 8.1 70 2.7 NNW 24 33 13 18 1017.7 - 0.0
05/07:30am 13.4 7.9 7.5 67 2.9 NNW 26 35 14 19 1017.8 - 0.0
05/07:00am 13.4 8.3 7.7 68 2.8 NNW 24 37 13 20 1017.8 - 0.0
05/06:30am 13.3 8.7 8.1 71 2.6 NNW 22 33 12 18 1017.8 - 0.0
05/06:00am 13.2 8.7 8.4 72 2.4 NNW 22 33 12 18 1017.8 1018.0 0.0
05/05:30am 13.6 9.0 8.2 70 2.7 NNW 22 32 12 17 1017.8 - 0.0
05/05:00am 13.6 8.6 8.0 69 2.8 NNW 24 35 13 19 1017.7 - 0.0
05/04:30am 13.5 8.8 7.9 69 2.8 NNW 22 32 12 17 1017.6 - 0.0
05/04:00am 13.5 8.6 8.5 72 2.5 NNW 24 33 13 18 1017.8 - 0.0
05/03:30am 13.4 9.1 9.3 76 2.1 NNW 22 30 12 16 1018.0 - 0.0
05/03:00am 13.5 8.5 8.1 70 2.7 NNW 24 33 13 18 1018.3 1018.5 0.0
05/02:30am 13.5 9.4 8.8 73 2.4 NNW 20 28 11 15 1018.5 - 0.0
05/02:00am 13.4 8.5 8.6 73 2.4 NNW 24 33 13 18 1018.4 - 0.0
05/01:30am 13.3 9.1 9.6 78 1.9 NW 22 30 12 16 1018.6 - 0.0
05/01:00am 13.2 9.6 10.7 85 1.3 NNW 20 26 11 14 1018.7 - 0.0
05/12:30am 13.0 10.2 11.5 91 0.8 NNW 17 20 9 11 1019.1 - 0.0
05/12:00am 13.2 10.5 11.7 91 0.8 NNW 17 24 9 13 1019.3 1019.5 0.0
 
Date/Time
CST
Temp
°C
App
Temp
°C
Dew
Point
Rel
Hum
%
Delta-T
°C
Wind Press
QNH
hPa
Press
MSL
hPa
Rain
since 9 am
mm
Dir
 
Spd
km/h
Gust
km/h
Spd
kts
Gust
kts
04/11:30pm 13.3 10.7 12.0 92 0.7 NNW 17 26 9 14 1019.5 - 0.0
04/11:00pm 13.4 10.8 12.1 92 0.7 NNW 17 26 9 14 1019.6 - 0.0
04/10:30pm 13.6 11.0 11.9 89 0.9 NNW 17 24 9 13 1019.8 - 0.0
04/10:00pm 13.6 11.0 11.9 89 0.9 NNW 17 26 9 14 1020.0 - 0.0
04/09:30pm 13.6 10.5 11.7 88 1.0 NNW 19 26 10 14 1020.1 - 0.0
04/09:00pm 13.6 10.9 11.7 88 1.0 NNW 17 24 9 13 1020.2 1020.4 0.0
04/08:30pm 13.4 10.6 11.3 87 1.1 NNW 17 24 9 13 1020.2 - 0.0
04/08:00pm 13.3 10.5 11.2 87 1.1 NNW 17 26 9 14 1020.2 - 0.0
04/07:30pm 13.1 11.1 11.4 89 0.9 NNW 13 20 7 11 1020.3 - 0.0
04/07:00pm 12.9 10.4 11.0 88 1.0 NNW 15 20 8 11 1020.4 - 0.0
04/06:30pm 13.0 10.2 9.9 81 1.6 NNW 15 20 8 11 1020.4 - 0.0
04/06:00pm 13.0 10.5 9.7 80 1.7 N 13 19 7 10 1020.1 1020.3 0.0
04/05:30pm 13.0 11.0 10.1 82 1.5 NNW 11 15 6 8 1020.4 - 0.0
04/05:00pm 14.0 12.1 10.4 79 1.9 NNW 11 15 6 8 1020.4 - 0.0
04/04:30pm 14.6 12.2 10.2 75 2.3 N 13 19 7 10 1020.4 - 0.0
04/04:00pm 15.1 12.2 9.7 70 2.8 NNW 15 20 8 11 1020.6 - 0.0
04/03:30pm 15.5 12.7 10.0 70 2.9 NNW 15 20 8 11 1020.5 - 0.0
04/03:00pm 15.2 11.7 10.3 72 2.6 N 19 24 10 13 1020.3 1020.5 0.0
04/02:30pm 15.7 12.4 9.6 67 3.2 N 17 20 9 11 1020.5 - 0.0
04/02:00pm 15.6 12.2 9.0 65 3.4 NNW 17 24 9 13 1020.9 - 0.0
04/01:30pm 15.7 12.0 9.3 65 3.3 N 19 24 10 13 1021.2 - 0.0
04/01:00pm 15.6 12.2 9.0 65 3.4 N 17 24 9 13 1021.5 - 0.0
04/12:30pm 15.7 12.4 9.6 67 3.2 NNW 17 22 9 12 1022.0 - 0.0
04/12:00pm 15.5 11.9 8.4 62 3.6 NNW 17 24 9 13 1022.3 1022.5 0.0
04/11:30am 15.5 12.2 9.5 67 3.1 N 17 24 9 13 1022.7 - 0.0
04/11:00am 15.2 12.2 9.4 68 3.0 NNW 15 20 8 11 1023.1 - 0.0
04/10:30am 14.4 11.5 9.8 74 2.4 NNW 15 22 8 12 1023.4 - 0.0
04/10:00am 13.6 10.4 10.1 79 1.8 N 17 22 9 12 1023.5 - 0.0
04/09:30am 13.2 10.0 10.1 81 1.6 N 17 24 9 13 1023.3 - 0.0
04/09:00am 12.7 9.9 10.0 84 1.4 N 15 22 8 12 1023.1 1023.3 17.2
04/08:30am 12.6 10.2 10.1 85 1.3 N 13 20 7 11 1023.0 - 17.2
04/08:00am 12.5 9.9 10.6 88 1.0 N 15 20 8 11 1023.0 - 17.2
04/07:30am 12.5 10.2 10.6 88 1.0 N 13 20 7 11 1022.8 - 17.0
04/07:00am 12.5 10.4 11.2 92 0.7 N 13 17 7 9 1022.6 - 17.0
04/06:30am 12.6 10.6 11.5 93 0.6 N 13 17 7 9 1022.4 - 17.0
04/06:00am 12.5 11.7 11.6 94 0.5 N 7 11 4 6 1022.4 1022.6 17.0
04/05:30am 12.5 11.0 11.8 95 0.4 N 11 15 6 8 1022.3 - 17.0
04/05:00am 12.5 10.6 11.8 95 0.4 NNW 13 19 7 10 1022.4 - 17.0
04/04:30am 11.9 10.9 10.9 94 0.5 N 7 9 4 5 1022.5 - 17.0
04/04:00am 11.5 9.7 10.9 96 0.3 NNW 11 15 6 8 1022.5 - 17.0
04/03:30am 11.5 10.4 10.7 95 0.4 NW 7 13 4 7 1022.7 - 17.0
04/03:00am 11.6 10.6 11.0 96 0.3 NW 7 13 4 7 1022.8 1023.0 16.8
04/02:30am 11.2 10.1 10.6 96 0.3 N 7 11 4 6 1023.0 - 16.8
04/02:00am 11.5 10.5 11.1 97 0.2 NW 7 9 4 5 1023.2 - 16.2
04/01:30am 12.0 11.1 11.4 96 0.3 WNW 7 11 4 6 1023.3 - 15.8
04/01:00am 12.0 11.1 11.4 96 0.3 NW 7 11 4 6 1023.4 - 14.8
04/12:30am 12.1 10.8 11.3 95 0.4 NW 9 15 5 8 1023.5 - 10.6
04/12:00am 12.1 10.8 11.3 95 0.4 W 9 13 5 7 1023.8 1024.0 7.8
 
Date/Time
CST
Temp
°C
App
Temp
°C
Dew
Point
Rel
Hum
%
Delta-T
°C
Wind Press
QNH
hPa
Press
MSL
hPa
Rain
since 9 am
mm
Dir
 
Spd
km/h
Gust
km/h
Spd
kts
Gust
kts
03/11:30pm 12.4 11.5 11.3 93 0.6 NNW 7 17 4 9 1023.9 - 4.6
03/11:00pm 12.9 11.0 10.6 86 1.2 NNW 11 17 6 9 1024.1 - 0.0
03/10:30pm 12.8 10.5 10.3 85 1.3 NW 13 17 7 9 1024.2 - 0.0
03/10:00pm 12.8 10.0 10.1 84 1.4 N 15 20 8 11 1024.2 - 0.0
03/09:30pm 12.8 10.1 10.3 85 1.3 N 15 22 8 12 1024.4 - 0.0
03/09:00pm 12.9 10.4 9.6 80 1.7 N 13 20 7 11 1024.5 1024.7 0.0
03/08:30pm 12.8 10.2 9.3 79 1.8 N 13 20 7 11 1024.7 - 0.0
03/08:00pm 12.7 10.0 9.1 79 1.8 N 13 19 7 10 1024.7 - 0.0
03/07:30pm 12.7 10.0 8.9 78 1.9 N 13 19 7 10 1024.7 - 0.0
03/07:00pm 12.5 9.7 8.7 77 1.9 NNW 13 17 7 9 1024.6 - 0.0
03/06:30pm 12.4 9.9 8.4 76 2.0 NNW 11 15 6 8 1024.7 - 0.0
03/06:00pm 11.9 9.8 8.3 78 1.8 N 9 11 5 6 1024.7 1024.9 0.0
03/05:30pm 11.9 9.8 8.3 78 1.8 NNW 9 11 5 6 1024.7 - 0.0
03/05:00pm 12.3 9.4 8.3 76 2.0 NW 13 19 7 10 1024.8 - 0.0
03/04:30pm 12.4 9.9 8.4 76 2.0 NW 11 17 6 9 1024.8 - 0.0
03/04:00pm 12.4 9.6 8.6 77 1.9 NW 13 19 7 10 1024.9 - 0.0
03/03:30pm 12.6 9.3 8.2 74 2.2 NW 15 19 8 10 1025.0 - 0.0
03/03:00pm 12.5 9.1 9.3 81 1.6 N 17 24 9 13 1025.1 1025.3 0.0
03/02:30pm 12.4 9.1 9.4 82 1.5 N 17 24 9 13 1025.1 - 0.0
03/02:00pm 12.0 8.6 9.0 82 1.5 N 17 24 9 13 1025.4 - 0.0
03/01:30pm 12.0 8.5 8.8 81 1.6 N 17 24 9 13 1025.7 - 0.0
03/01:00pm 11.8 8.6 8.4 80 1.7 N 15 20 8 11 1026.2 - 0.0
03/12:30pm 11.6 8.3 8.1 79 1.7 N 15 20 8 11 1026.7 - 0.0
03/12:00pm 11.6 7.4 7.5 76 2.0 N 19 28 10 15 1027.3 1027.6 0.0
03/11:30am 11.9 7.8 7.8 76 2.0 N 19 26 10 14 1027.6 - 0.0
03/11:00am 12.0 7.7 7.2 72 2.3 N 19 24 10 13 1027.7 - 0.0
03/10:30am 12.0 8.1 7.0 71 2.4 N 17 24 9 13 1028.0 - 0.0
03/10:00am 11.9 7.8 6.4 69 2.6 N 17 22 9 12 1027.9 - 0.0
03/09:30am 11.9 7.9 6.6 70 2.5 N 17 22 9 12 1027.8 - 0.0
03/09:00am 12.0 8.1 5.3 63 3.1 N 15 20 8 11 1027.8 1028.0 0.0
03/08:30am 11.8 8.0 5.6 66 2.9 N 15 20 8 11 1027.5 - 0.0
03/08:00am 11.5 7.9 5.2 65 2.9 N 13 20 7 11 1027.1 - 0.0
03/07:30am 11.5 7.6 5.2 65 2.9 N 15 20 8 11 1027.0 - 0.0
03/07:00am 11.4 7.6 5.8 68 2.6 NNE 15 20 8 11 1027.3 - 0.0
03/06:30am 10.4 6.9 5.6 72 2.2 ENE 13 22 7 12 1027.3 - 0.0
03/06:00am 9.6 6.5 5.4 75 1.9 E 11 19 6 10 1027.5 1027.7 0.0
03/05:30am 9.5 5.7 5.6 76 1.8 E 15 17 8 9 1027.2 - 0.0
03/05:00am 8.8 5.2 4.8 76 1.8 E 13 15 7 8 1027.3 - 0.0
03/04:30am 8.9 5.3 4.9 76 1.8 E 13 17 7 9 1027.6 - 0.0
03/04:00am 9.3 5.7 4.8 73 2.0 E 13 17 7 9 1027.8 - 0.0
03/03:30am 8.9 5.2 4.6 74 1.9 E 13 15 7 8 1028.4 - 0.0
03/03:00am 8.8 5.9 4.8 76 1.8 E 9 11 5 6 1029.0 1029.2 0.0
03/02:30am 8.9 5.2 4.6 74 1.9 E 13 13 7 7 1028.9 - 0.0
03/02:00am 8.1 4.8 4.7 79 1.5 ESE 11 13 6 7 1028.9 - 0.0
03/01:30am 8.0 4.7 4.8 80 1.4 E 11 15 6 8 1028.9 - 0.0
03/01:00am 8.0 4.7 4.6 79 1.5 E 11 13 6 7 1029.0 - 0.0
03/12:30am 7.9 4.2 4.7 80 1.4 E 13 13 7 7 1029.2 - 0.0
03/12:00am 7.8 4.2 4.9 82 1.3 E 13 17 7 9 1029.7 1029.9 0.0
 
Date/Time
CST
Temp
°C
App
Temp
°C
Dew
Point
Rel
Hum
%
Delta-T
°C
Wind Press
QNH
hPa
Press
MSL
hPa
Rain
since 9 am
mm
Dir
 
Spd
km/h
Gust
km/h
Spd
kts
Gust
kts
02/11:30pm 7.2 2.7 4.4 82 1.2 E 17 17 9 9 1029.9 - 0.0
02/11:00pm 6.2 2.0 3.8 85 1.0 ESE 15 17 8 9 1030.1 - 0.0

Other Formats:

Comma delimited format used in spreadsheet applications
http://www.bom.gov.au/fwo/IDS60801/IDS60801.95805.axf

JavaScript Object Notation format (JSON) in row-major order
http://www.bom.gov.au/fwo/IDS60801/IDS60801.95805.json